Time;durP1;ratioP1;P1;durP2;ratioP2;P2;SDS_P1;SDS_P2;PMS_P1;PMS_P2;Temp;Humidity;BMP_temperature;BMP_pressure;BME280_temperature;BME280_humidity;BME280_pressure;Samples;Min_cycle;Max_cycle;Signal;HPM_P1;HPM_P2
2022/05/06 00:02:26;;;;;;;9.65;7.25;;;;;;;;;;10363966;28;20061;-76
2022/05/06 00:07:27;;;;;;;9.00;7.73;;;;;;;;;;10362121;28;20049;-74
2022/05/06 00:12:28;;;;;;;10.48;7.82;;;;;;;;;;10343363;28;20584;-75
2022/05/06 00:17:28;;;;;;;7.80;7.00;;;;;;;;;;10330967;28;20089;-75
2022/05/06 00:22:29;;;;;;;7.88;7.07;;;;;;;;;;10342484;28;20076;-76
2022/05/06 00:27:30;;;;;;;8.98;7.38;;;;;;;;;;10361929;28;20445;-76
2022/05/06 00:32:30;;;;;;;8.93;7.18;;;;;;;;;;10350556;28;20045;-76
2022/05/06 00:37:31;;;;;;;9.27;7.47;;;;;;;;;;10362681;28;20038;-76
2022/05/06 00:42:32;;;;;;;9.23;7.43;;;;;;;;;;10360795;28;20065;-76
2022/05/06 00:47:34;;;;;;;9.43;7.10;;;;;;;;;;10341707;28;20070;-76
2022/05/06 00:52:34;;;;;;;8.77;7.65;;;;;;;;;;10342176;28;20073;-77
2022/05/06 00:57:35;;;;;;;10.55;7.65;;;;;;;;;;10344638;28;20137;-77
2022/05/06 01:02:36;;;;;;;9.55;7.10;;;;;;;;;;10360288;28;20069;-76
2022/05/06 01:07:37;;;;;;;7.53;6.43;;;;;;;;;;10359237;28;20042;-77
2022/05/06 01:12:39;;;;;;;8.48;7.03;;;;;;;;;;10364096;28;20450;-78
2022/05/06 01:17:46;;;;;;;10.75;7.18;;;;;;;;;;10374963;28;20152;-76
2022/05/06 01:22:49;;;;;;;10.55;6.68;;;;;;;;;;10371365;28;20553;-76
2022/05/06 01:27:52;;;;;;;6.93;6.15;;;;;;;;;;10368463;28;20467;-75
2022/05/06 01:32:52;;;;;;;;;;;;;;;;;;10349530;28;20081;-75
2022/05/06 01:37:54;;;;;;;6.78;5.50;;;;;;;;;;10349204;28;20435;-76
2022/05/06 01:42:57;;;;;;;8.05;5.38;;;;;;;;;;10318048;28;20058;-76
2022/05/06 01:48:00;;;;;;;6.28;4.88;;;;;;;;;;10349864;28;20437;-78
2022/05/06 01:53:01;;;;;;;6.95;4.50;;;;;;;;;;10368890;28;20153;-77
2022/05/06 01:58:04;;;;;;;5.18;4.68;;;;;;;;;;10333561;28;20038;-76
2022/05/06 02:05:16;;;;;;;6.85;4.50;;;;;;;;;;10337350;28;20053;-76
2022/05/06 02:08:29;;;;;;;5.63;4.60;;;;;;;;;;10365941;28;20489;-74
2022/05/06 02:13:30;;;;;;;5.88;4.43;;;;;;;;;;10330550;28;20057;-76
2022/05/06 02:18:54;;;;;;;6.28;5.13;;;;;;;;;;10332802;28;20049;-75
2022/05/06 02:24:17;;;;;;;6.90;4.70;;;;;;;;;;10354526;28;20076;-75
2022/05/06 02:29:36;;;;;;;6.35;4.20;;;;;;;;;;10344060;28;20041;-75
2022/05/06 02:34:42;;;;;;;6.18;4.40;;;;;;;;;;10344195;28;20081;-75
2022/05/06 02:39:45;;;;;;;5.57;3.70;;;;;;;;;;10354387;28;20500;-75
2022/05/06 02:44:51;;;;;;;4.90;3.65;;;;;;;;;;10356568;28;20760;-77
2022/05/06 02:49:52;;;;;;;4.57;3.80;;;;;;;;;;10359819;28;20045;-77
2022/05/06 02:54:52;;;;;;;4.18;3.50;;;;;;;;;;10343883;28;20426;-76
2022/05/06 02:59:55;;;;;;;4.57;3.93;;;;;;;;;;10341427;28;20042;-74
2022/05/06 03:04:58;;;;;;;7.13;3.85;;;;;;;;;;10346392;28;20044;-76
2022/05/06 03:10:00;;;;;;;5.53;4.47;;;;;;;;;;10344201;28;20053;-76
2022/05/06 03:15:05;;;;;;;5.18;3.58;;;;;;;;;;10343662;28;20061;-75
2022/05/06 03:20:26;;;;;;;4.97;4.03;;;;;;;;;;10359227;28;20081;-75
2022/05/06 03:25:26;;;;;;;5.95;4.35;;;;;;;;;;10350659;28;20655;-75
2022/05/06 03:30:27;;;;;;;4.80;4.00;;;;;;;;;;10345196;28;20045;-74
2022/05/06 03:35:34;;;;;;;4.10;3.60;;;;;;;;;;10348136;28;20042;-76
2022/05/06 03:40:35;;;;;;;4.80;3.70;;;;;;;;;;10331268;28;20058;-74
2022/05/06 03:45:39;;;;;;;6.90;4.38;;;;;;;;;;10360473;28;20054;-76
2022/05/06 03:56:04;;;;;;;5.55;4.25;;;;;;;;;;10361756;28;20145;-76
2022/05/06 04:01:10;;;;;;;5.60;4.43;;;;;;;;;;10353061;28;20062;-76
2022/05/06 04:06:16;;;;;;;5.72;4.45;;;;;;;;;;10342755;28;20125;-76
2022/05/06 04:11:24;;;;;;;5.80;4.03;;;;;;;;;;10339805;28;20073;-75
2022/05/06 04:16:30;;;;;;;4.78;4.28;;;;;;;;;;10334517;28;20046;-74
2022/05/06 04:26:55;;;;;;;5.38;4.03;;;;;;;;;;10344279;28;20042;-74
2022/05/06 04:31:56;;;;;;;8.65;4.18;;;;;;;;;;10345758;28;20132;-74
2022/05/06 04:36:57;;;;;;;7.35;4.70;;;;;;;;;;10318729;28;20105;-74
2022/05/06 04:41:59;;;;;;;5.97;3.95;;;;;;;;;;10359272;28;20056;-74
2022/05/06 04:47:09;;;;;;;4.78;3.50;;;;;;;;;;10366002;28;20104;-77
2022/05/06 04:52:11;;;;;;;3.97;3.57;;;;;;;;;;10344542;28;20585;-75
2022/05/06 04:57:12;;;;;;;7.70;4.03;;;;;;;;;;10334008;28;20034;-75
2022/05/06 05:02:13;;;;;;;6.88;4.03;;;;;;;;;;10354496;28;20153;-74
2022/05/06 05:07:13;;;;;;;4.63;3.58;;;;;;;;;;10361180;28;20626;-75
2022/05/06 05:12:24;;;;;;;5.25;3.75;;;;;;;;;;10347304;28;20387;-76
2022/05/06 05:17:25;;;;;;;8.88;4.75;;;;;;;;;;10338205;28;20049;-75
2022/05/06 05:22:28;;;;;;;6.87;4.93;;;;;;;;;;10340120;28;20060;-75
2022/05/06 05:27:30;;;;;;;6.93;4.30;;;;;;;;;;10366949;28;20273;-76
2022/05/06 05:32:32;;;;;;;6.55;4.03;;;;;;;;;;10351986;28;20042;-75
2022/05/06 05:37:34;;;;;;;6.53;4.33;;;;;;;;;;10355146;28;20037;-78
2022/05/06 05:42:38;;;;;;;6.10;4.13;;;;;;;;;;10358744;28;20735;-73
2022/05/06 05:53:05;;;;;;;6.22;3.78;;;;;;;;;;10350253;28;20061;-72
2022/05/06 05:58:06;;;;;;;4.72;3.40;;;;;;;;;;10350809;28;20343;-73
2022/05/06 06:03:09;;;;;;;4.67;3.43;;;;;;;;;;10341703;28;20326;-73
2022/05/06 06:08:13;;;;;;;4.95;3.47;;;;;;;;;;10339410;28;20085;-73
2022/05/06 06:13:22;;;;;;;4.33;3.07;;;;;;;;;;10374713;28;20058;-75
2022/05/06 06:18:26;;;;;;;5.10;3.03;;;;;;;;;;10344835;28;20292;-76
2022/05/06 06:23:29;;;;;;;6.00;3.28;;;;;;;;;;10384479;28;20113;-76
2022/05/06 06:28:33;;;;;;;4.53;2.80;;;;;;;;;;10357700;28;20516;-75
2022/05/06 06:33:37;;;;;;;5.00;3.10;;;;;;;;;;10349474;28;20049;-75
2022/05/06 06:38:46;;;;;;;3.20;2.70;;;;;;;;;;10376202;28;20133;-77
2022/05/06 06:43:49;;;;;;;4.32;3.00;;;;;;;;;;10372286;28;20720;-76
2022/05/06 06:48:56;;;;;;;4.03;2.85;;;;;;;;;;10365184;28;20047;-73
2022/05/06 06:54:22;;;;;;;3.50;3.10;;;;;;;;;;10359424;28;20077;-74
2022/05/06 06:59:23;;;;;;;6.03;3.30;;;;;;;;;;10384144;28;20057;-75
2022/05/06 07:04:25;;;;;;;3.05;2.55;;;;;;;;;;10343514;28;20058;-76
2022/05/06 07:14:44;;;;;;;4.45;3.10;;;;;;;;;;10374230;28;20088;-75
2022/05/06 07:19:45;;;;;;;3.27;2.57;;;;;;;;;;10361177;28;20108;-74
2022/05/06 07:24:46;;;;;;;3.13;2.30;;;;;;;;;;10375173;28;20303;-74
2022/05/06 07:29:46;;;;;;;4.28;2.38;;;;;;;;;;10351396;28;20077;-75
2022/05/06 07:34:48;;;;;;;5.50;2.70;;;;;;;;;;10371953;28;20120;-75
2022/05/06 07:39:49;;;;;;;4.50;2.20;;;;;;;;;;10365996;28;20425;-76
2022/05/06 07:44:50;;;;;;;2.88;2.38;;;;;;;;;;10328557;28;20053;-74
2022/05/06 07:49:51;;;;;;;5.60;2.90;;;;;;;;;;10353229;28;20564;-75
2022/05/06 07:54:54;;;;;;;4.65;2.28;;;;;;;;;;10352813;28;20046;-76
2022/05/06 07:59:54;;;;;;;3.00;2.50;;;;;;;;;;10336403;28;20081;-75
2022/05/06 08:05:00;;;;;;;2.10;1.90;;;;;;;;;;10363695;28;20188;-76
2022/05/06 08:10:06;;;;;;;4.00;2.25;;;;;;;;;;10349415;28;20059;-76
2022/05/06 08:15:08;;;;;;;3.38;2.08;;;;;;;;;;10349335;28;20045;-76
2022/05/06 08:20:09;;;;;;;3.60;2.20;;;;;;;;;;10334536;28;20049;-77
2022/05/06 08:25:09;;;;;;;5.55;2.10;;;;;;;;;;10339678;28;20116;-76
2022/05/06 08:30:12;;;;;;;3.00;1.92;;;;;;;;;;10354537;28;20058;-76
2022/05/06 08:35:12;;;;;;;2.93;2.50;;;;;;;;;;10359339;28;20068;-76
2022/05/06 08:40:17;;;;;;;2.50;2.00;;;;;;;;;;10361964;28;20052;-78
2022/05/06 08:50:51;;;;;;;3.50;2.17;;;;;;;;;;10349286;28;20065;-77
2022/05/06 08:55:52;;;;;;;3.97;2.60;;;;;;;;;;10365909;28;20049;-78
2022/05/06 09:01:22;;;;;;;4.13;2.30;;;;;;;;;;10370616;28;20045;-79
2022/05/06 09:06:23;;;;;;;3.22;2.33;;;;;;;;;;10340142;28;20073;-78
2022/05/06 09:16:47;;;;;;;3.65;2.10;;;;;;;;;;10382474;28;20046;-76
2022/05/06 09:22:05;;;;;;;3.20;2.60;;;;;;;;;;10368884;28;20058;-77
2022/05/06 09:27:07;;;;;;;5.28;3.90;;;;;;;;;;10365680;28;20429;-76
2022/05/06 09:32:14;;;;;;;2.28;2.00;;;;;;;;;;10352574;28;20080;-77
2022/05/06 09:37:33;;;;;;;4.32;2.05;;;;;;;;;;10362703;28;20061;-78
2022/05/06 09:42:35;;;;;;;2.22;1.98;;;;;;;;;;10344161;28;20060;-77
2022/05/06 09:47:36;;;;;;;3.35;2.03;;;;;;;;;;10340238;28;20050;-77
2022/05/06 09:52:36;;;;;;;2.45;2.25;;;;;;;;;;10368281;28;20057;-78
2022/05/06 09:57:38;;;;;;;4.75;2.40;;;;;;;;;;10350896;28;20133;-78
2022/05/06 10:02:39;;;;;;;3.22;2.60;;;;;;;;;;10357695;28;20073;-78
2022/05/06 10:07:41;;;;;;;4.18;2.10;;;;;;;;;;10366086;28;20066;-78
2022/05/06 10:12:42;;;;;;;4.57;2.40;;;;;;;;;;10368700;28;20050;-78
2022/05/06 10:17:52;;;;;;;6.20;2.47;;;;;;;;;;10367647;28;20050;-77
2022/05/06 10:23:00;;;;;;;3.90;2.10;;;;;;;;;;10367752;28;20046;-79
2022/05/06 10:33:58;;;;;;;2.60;2.40;;;;;;;;;;10375391;28;20076;-77
2022/05/06 10:38:58;;;;;;;2.72;2.30;;;;;;;;;;10361375;28;20120;-78
2022/05/06 10:43:58;;;;;;;3.43;2.27;;;;;;;;;;10379301;28;20172;-78
2022/05/06 10:49:28;;;;;;;2.60;2.40;;;;;;;;;;10376417;28;20366;-78
2022/05/06 10:54:28;;;;;;;3.05;2.58;;;;;;;;;;10347847;28;20053;-80
2022/05/06 10:59:47;;;;;;;3.87;2.23;;;;;;;;;;10362857;28;20133;-77
2022/05/06 11:04:50;;;;;;;2.17;1.98;;;;;;;;;;10364598;28;21150;-79
2022/05/06 11:09:51;;;;;;;5.25;2.13;;;;;;;;;;10360023;28;20128;-77
2022/05/06 11:14:55;;;;;;;2.95;2.50;;;;;;;;;;10356349;28;20049;-77
2022/05/06 11:19:56;;;;;;;4.35;2.53;;;;;;;;;;10380503;28;20127;-79
2022/05/06 11:25:03;;;;;;;3.00;2.63;;;;;;;;;;10358853;28;20127;-79
2022/05/06 11:30:03;;;;;;;4.18;2.92;;;;;;;;;;10358058;28;20096;-78
2022/05/06 11:35:09;;;;;;;2.40;2.13;;;;;;;;;;10376036;28;20046;-79
2022/05/06 11:50:47;;;;;;;4.68;2.75;;;;;;;;;;10330188;28;20049;-78
2022/05/06 11:55:47;;;;;;;3.22;2.90;;;;;;;;;;10368479;28;20052;-80
2022/05/06 12:00:51;;;;;;;3.80;2.50;;;;;;;;;;10368850;28;20064;-77
2022/05/06 12:06:02;;;;;;;3.63;3.17;;;;;;;;;;10356966;28;20050;-75
2022/05/06 12:11:06;;;;;;;6.10;2.90;;;;;;;;;;10365068;28;20050;-77
2022/05/06 12:16:15;;;;;;;2.88;2.53;;;;;;;;;;10349675;28;20402;-79
2022/05/06 12:21:20;;;;;;;4.25;3.20;;;;;;;;;;10366310;28;20448;-77
2022/05/06 12:26:27;;;;;;;4.68;3.47;;;;;;;;;;10366983;28;20503;-78
2022/05/06 12:31:31;;;;;;;4.85;3.55;;;;;;;;;;10380401;28;20050;-77
2022/05/06 12:36:32;;;;;;;4.45;3.30;;;;;;;;;;10375522;28;20118;-77
2022/05/06 12:41:34;;;;;;;4.20;3.45;;;;;;;;;;10384276;28;20080;-78
2022/05/06 12:46:34;;;;;;;3.33;3.00;;;;;;;;;;10369622;28;20061;-79
2022/05/06 12:51:35;;;;;;;5.35;3.42;;;;;;;;;;10346069;28;20054;-79
2022/05/06 12:56:35;;;;;;;5.30;3.72;;;;;;;;;;10367844;28;20042;-79
2022/05/06 13:01:36;;;;;;;5.13;3.17;;;;;;;;;;10350477;28;20081;-79
2022/05/06 13:06:37;;;;;;;4.03;3.55;;;;;;;;;;10348915;28;20277;-79
2022/05/06 13:11:37;;;;;;;3.83;3.10;;;;;;;;;;10367384;28;20061;-80
2022/05/06 13:16:39;;;;;;;5.05;3.78;;;;;;;;;;10369972;28;20061;-81
2022/05/06 13:21:39;;;;;;;5.32;3.70;;;;;;;;;;10376068;28;20121;-78
2022/05/06 13:26:39;;;;;;;4.45;3.85;;;;;;;;;;10375753;28;20141;-77
2022/05/06 13:31:40;;;;;;;4.60;3.77;;;;;;;;;;10365700;28;20481;-79
2022/05/06 13:36:41;;;;;;;4.25;3.50;;;;;;;;;;10368131;28;20645;-78
2022/05/06 13:41:42;;;;;;;4.00;3.60;;;;;;;;;;10353655;28;20046;-78
2022/05/06 13:46:43;;;;;;;5.18;3.70;;;;;;;;;;10366919;28;20046;-78
2022/05/06 13:51:43;;;;;;;2.80;2.60;;;;;;;;;;10370469;28;20069;-78
2022/05/06 14:02:03;;;;;;;3.50;3.20;;;;;;;;;;10379024;28;20046;-79
2022/05/06 14:07:04;;;;;;;4.45;3.28;;;;;;;;;;10352836;28;20120;-78
2022/05/06 14:12:08;;;;;;;4.03;3.63;;;;;;;;;;10389439;28;20054;-77
2022/05/06 14:17:08;;;;;;;5.60;3.63;;;;;;;;;;10387663;28;20056;-77
2022/05/06 14:22:09;;;;;;;3.70;3.40;;;;;;;;;;10352064;28;20137;-78
2022/05/06 14:27:09;;;;;;;3.72;3.35;;;;;;;;;;10352789;28;20719;-78
2022/05/06 14:32:10;;;;;;;3.50;3.20;;;;;;;;;;10363939;28;20109;-78
2022/05/06 14:37:11;;;;;;;4.88;3.00;;;;;;;;;;10373503;28;20056;-78
2022/05/06 14:42:11;;;;;;;3.60;3.30;;;;;;;;;;10366453;28;20064;-78
2022/05/06 14:47:11;;;;;;;4.80;3.75;;;;;;;;;;10366928;28;20054;-77
2022/05/06 14:52:11;;;;;;;5.63;3.60;;;;;;;;;;10371360;28;20055;-77
2022/05/06 14:57:12;;;;;;;3.65;3.13;;;;;;;;;;10366352;28;20115;-76
2022/05/06 15:02:13;;;;;;;4.35;3.53;;;;;;;;;;10367378;28;20061;-79
2022/05/06 15:07:13;;;;;;;2.97;2.67;;;;;;;;;;10367709;28;20046;-78
2022/05/06 15:12:15;;;;;;;3.03;2.77;;;;;;;;;;10341775;28;20069;-77
2022/05/06 15:17:18;;;;;;;4.13;3.45;;;;;;;;;;10348811;28;20069;-77
2022/05/06 15:22:18;;;;;;;4.03;3.65;;;;;;;;;;10351355;28;20061;-78
2022/05/06 15:27:21;;;;;;;3.78;3.15;;;;;;;;;;10360550;28;20128;-78
2022/05/06 15:32:21;;;;;;;5.53;3.90;;;;;;;;;;10365435;28;20513;-77
2022/05/06 15:37:22;;;;;;;3.83;3.50;;;;;;;;;;10364560;28;20153;-77
2022/05/06 15:42:22;;;;;;;3.83;3.40;;;;;;;;;;10346342;28;20285;-77
2022/05/06 15:47:22;;;;;;;4.43;4.03;;;;;;;;;;10351428;28;20269;-77
2022/05/06 15:52:23;;;;;;;3.77;3.27;;;;;;;;;;10374239;28;20159;-78
2022/05/06 15:57:24;;;;;;;3.40;3.10;;;;;;;;;;10367124;28;20521;-77
2022/05/06 16:02:24;;;;;;;4.38;4.00;;;;;;;;;;10385368;28;20045;-77
2022/05/06 16:07:26;;;;;;;5.18;3.15;;;;;;;;;;10394325;28;20061;-76
2022/05/06 16:12:27;;;;;;;4.40;3.50;;;;;;;;;;10371789;28;20077;-77
2022/05/06 16:17:27;;;;;;;4.07;3.67;;;;;;;;;;10353428;28;20065;-77
2022/05/06 16:22:28;;;;;;;4.53;3.70;;;;;;;;;;10352346;28;20144;-78
2022/05/06 16:27:28;;;;;;;4.53;3.72;;;;;;;;;;10371447;28;21110;-77
2022/05/06 16:32:29;;;;;;;4.20;3.37;;;;;;;;;;10371178;28;20069;-78
2022/05/06 16:37:30;;;;;;;3.45;3.15;;;;;;;;;;10370551;28;20289;-78
2022/05/06 16:42:32;;;;;;;3.90;3.55;;;;;;;;;;10361569;28;20050;-79
2022/05/06 16:47:32;;;;;;;3.70;3.38;;;;;;;;;;10350885;28;20541;-78
2022/05/06 16:52:36;;;;;;;3.73;3.10;;;;;;;;;;10347430;28;20056;-79
2022/05/06 16:57:37;;;;;;;3.67;3.22;;;;;;;;;;10371847;28;20549;-78
2022/05/06 17:02:38;;;;;;;4.40;3.40;;;;;;;;;;10373187;28;20058;-78
2022/05/06 17:07:38;;;;;;;3.97;3.00;;;;;;;;;;10370641;28;20101;-78
2022/05/06 17:12:39;;;;;;;3.00;2.70;;;;;;;;;;10359213;28;20049;-79
2022/05/06 17:17:40;;;;;;;3.67;3.08;;;;;;;;;;10353476;28;20057;-79
2022/05/06 17:22:42;;;;;;;4.97;3.50;;;;;;;;;;10332262;28;20424;-78
2022/05/06 17:27:43;;;;;;;4.50;3.60;;;;;;;;;;10371246;28;20125;-77
2022/05/06 17:32:44;;;;;;;5.10;3.27;;;;;;;;;;10355908;28;20629;-77
2022/05/06 17:37:45;;;;;;;5.87;3.20;;;;;;;;;;10379936;28;20042;-78
2022/05/06 17:42:46;;;;;;;4.70;3.50;;;;;;;;;;10359460;28;20303;-79
2022/05/06 17:47:46;;;;;;;6.07;3.30;;;;;;;;;;10383352;28;20076;-78
2022/05/06 17:52:47;;;;;;;4.10;3.57;;;;;;;;;;10370024;28;20042;-79
2022/05/06 17:57:47;;;;;;;3.70;3.33;;;;;;;;;;10356022;28;20764;-79
2022/05/06 18:02:48;;;;;;;5.03;3.53;;;;;;;;;;10377715;28;20640;-79
2022/05/06 18:07:51;;;;;;;3.33;3.03;;;;;;;;;;10372174;28;20085;-79
2022/05/06 18:12:51;;;;;;;3.67;3.33;;;;;;;;;;10366439;28;20053;-79
2022/05/06 18:17:52;;;;;;;4.47;3.10;;;;;;;;;;10375939;28;20054;-78
2022/05/06 18:22:52;;;;;;;3.55;3.25;;;;;;;;;;10362772;28;20297;-77
2022/05/06 18:27:53;;;;;;;4.10;3.15;;;;;;;;;;10374423;28;20053;-78
2022/05/06 18:38:12;;;;;;;6.32;4.43;;;;;;;;;;10369116;28;20505;-78
2022/05/06 18:43:14;;;;;;;4.38;3.88;;;;;;;;;;10353258;28;20204;-77
2022/05/06 18:48:15;;;;;;;5.82;4.03;;;;;;;;;;10332328;28;20104;-78
2022/05/06 18:53:21;;;;;;;4.72;4.22;;;;;;;;;;10366330;28;20129;-80
2022/05/06 18:58:22;;;;;;;4.38;3.97;;;;;;;;;;10379633;28;20042;-78
2022/05/06 19:03:22;;;;;;;5.90;4.53;;;;;;;;;;10343786;28;20113;-79
2022/05/06 19:08:23;;;;;;;4.93;4.25;;;;;;;;;;10383927;28;20066;-78
2022/05/06 19:13:23;;;;;;;4.90;3.87;;;;;;;;;;10360813;28;20132;-81
2022/05/06 19:18:35;;;;;;;4.10;3.70;;;;;;;;;;10323300;28;20285;-77
2022/05/06 19:28:55;;;;;;;6.40;4.00;;;;;;;;;;10368583;28;20053;-78
2022/05/06 19:33:56;;;;;;;5.37;4.00;;;;;;;;;;10355256;28;20080;-79
2022/05/06 19:38:57;;;;;;;5.53;3.88;;;;;;;;;;10364822;28;20052;-78
2022/05/06 19:43:59;;;;;;;4.40;4.00;;;;;;;;;;10349404;28;20058;-78
2022/05/06 19:49:01;;;;;;;5.15;3.80;;;;;;;;;;10333082;28;20049;-78
2022/05/06 19:54:01;;;;;;;4.82;3.75;;;;;;;;;;10353380;28;20046;-78
2022/05/06 19:59:03;;;;;;;3.60;3.30;;;;;;;;;;10350472;28;20029;-80
2022/05/06 20:04:06;;;;;;;5.93;3.75;;;;;;;;;;10375005;28;20049;-79
2022/05/06 20:09:10;;;;;;;6.13;4.60;;;;;;;;;;10357522;28;20406;-79
2022/05/06 20:14:11;;;;;;;4.07;3.67;;;;;;;;;;10365040;28;20104;-80
2022/05/06 20:19:12;;;;;;;5.03;4.40;;;;;;;;;;10357290;28;20034;-78
2022/05/06 20:24:16;;;;;;;5.50;4.13;;;;;;;;;;10335559;28;20127;-78
2022/05/06 20:29:18;;;;;;;9.10;5.38;;;;;;;;;;10343797;28;20397;-80
2022/05/06 20:34:18;;;;;;;4.20;3.80;;;;;;;;;;10344251;28;20057;-79
2022/05/06 20:39:19;;;;;;;6.67;4.50;;;;;;;;;;10328500;28;20288;-78
2022/05/06 20:44:20;;;;;;;6.22;5.20;;;;;;;;;;10358987;28;20304;-78
2022/05/06 20:49:23;;;;;;;8.10;5.85;;;;;;;;;;10368237;28;20046;-79
2022/05/06 20:54:30;;;;;;;7.38;5.40;;;;;;;;;;10350370;28;20064;-78
2022/05/06 20:59:34;;;;;;;4.35;3.95;;;;;;;;;;10358069;28;20508;-78
2022/05/06 21:04:36;;;;;;;5.85;4.80;;;;;;;;;;10365563;28;20085;-79
2022/05/06 21:15:00;;;;;;;4.93;4.43;;;;;;;;;;10360289;28;20358;-78
2022/05/06 21:20:00;;;;;;;5.35;4.40;;;;;;;;;;10365681;28;20052;-77
2022/05/06 21:25:02;;;;;;;4.95;4.03;;;;;;;;;;10345270;28;20141;-79
2022/05/06 21:30:03;;;;;;;5.18;4.40;;;;;;;;;;10371570;28;20510;-81
2022/05/06 21:35:03;;;;;;;6.40;4.68;;;;;;;;;;10341817;28;20668;-79
2022/05/06 21:40:07;;;;;;;7.03;4.88;;;;;;;;;;10323559;28;20070;-78
2022/05/06 21:45:08;;;;;;;6.22;4.93;;;;;;;;;;10362341;28;20081;-78
2022/05/06 21:50:10;;;;;;;7.03;5.05;;;;;;;;;;10371464;28;20038;-77
2022/05/06 21:55:12;;;;;;;6.97;5.20;;;;;;;;;;10339104;28;20045;-77
2022/05/06 22:00:14;;;;;;;5.28;4.57;;;;;;;;;;10337832;28;20430;-79
2022/05/06 22:05:15;;;;;;;6.63;4.93;;;;;;;;;;10371576;28;20157;-78
2022/05/06 22:10:16;;;;;;;5.30;4.80;;;;;;;;;;10352406;28;20930;-77
2022/05/06 22:15:16;;;;;;;5.50;5.00;;;;;;;;;;10348083;28;20053;-78
2022/05/06 22:20:17;;;;;;;6.47;4.72;;;;;;;;;;10341253;28;20060;-77
2022/05/06 22:25:18;;;;;;;7.53;4.97;;;;;;;;;;10370578;28;20062;-79
2022/05/06 22:30:19;;;;;;;6.50;5.28;;;;;;;;;;10380451;28;20042;-78
2022/05/06 22:35:19;;;;;;;5.95;4.68;;;;;;;;;;10358704;28;20058;-79
2022/05/06 22:40:21;;;;;;;6.20;4.80;;;;;;;;;;10367880;28;20057;-77
2022/05/06 22:50:44;;;;;;;6.38;5.03;;;;;;;;;;10362856;28;20049;-78
2022/05/06 22:55:44;;;;;;;5.75;4.65;;;;;;;;;;10351696;28;20042;-77
2022/05/06 23:00:45;;;;;;;6.80;5.53;;;;;;;;;;10350182;28;20163;-78
2022/05/06 23:05:45;;;;;;;7.50;5.60;;;;;;;;;;10340626;28;20109;-78
2022/05/06 23:10:46;;;;;;;6.20;5.28;;;;;;;;;;10366733;28;20286;-78
2022/05/06 23:15:46;;;;;;;6.97;6.23;;;;;;;;;;10352682;28;20045;-78
2022/05/06 23:20:47;;;;;;;7.88;6.20;;;;;;;;;;10356521;28;20368;-79
2022/05/06 23:25:47;;;;;;;7.30;5.70;;;;;;;;;;10351614;28;20054;-79
2022/05/06 23:30:48;;;;;;;9.10;6.00;;;;;;;;;;10369279;28;20284;-79
2022/05/06 23:41:09;;;;;;;8.13;6.32;;;;;;;;;;10352919;28;20057;-79
2022/05/06 23:46:09;;;;;;;7.78;5.93;;;;;;;;;;10354076;28;20051;-77
2022/05/06 23:51:12;;;;;;;7.20;6.20;;;;;;;;;;10367032;28;20481;-77
2022/05/06 23:56:12;;;;;;;7.63;5.75;;;;;;;;;;10349131;28;20280;-78
